createdAt,value
2023-05-15T00:00:48.987Z,20.30
2023-05-15T00:03:17.585Z,20.40
2023-05-15T00:05:45.699Z,20.40
2023-05-15T00:08:13.566Z,20.40
2023-05-15T00:10:44.995Z,20.30
2023-05-15T00:13:18.791Z,20.30
2023-05-15T00:15:48.074Z,20.30
2023-05-15T00:18:15.994Z,20.20
2023-05-15T00:20:43.831Z,20.20
2023-05-15T00:23:11.682Z,20.30
2023-05-15T00:25:39.531Z,20.30
2023-05-15T00:28:07.344Z,20.30
2023-05-15T00:30:35.151Z,20.30
2023-05-15T00:33:04.665Z,20.30
2023-05-15T00:35:33.628Z,20.30
2023-05-15T00:38:01.528Z,20.30
2023-05-15T00:40:31.768Z,20.20
2023-05-15T00:43:00.547Z,20.20
2023-05-15T00:45:29.639Z,20.20
2023-05-15T00:47:59.188Z,20.20
2023-05-15T00:50:29.686Z,20.20
2023-05-15T00:52:58.082Z,20.20
2023-05-15T00:55:28.145Z,20.20
2023-05-15T00:57:58.536Z,20.20
2023-05-15T01:00:26.774Z,20.10
2023-05-15T01:02:55.426Z,20.10
2023-05-15T01:05:23.592Z,20.20
2023-05-15T01:08:00.816Z,20.10
2023-05-15T01:10:29.056Z,20.10
2023-05-15T01:12:58.132Z,20.10
2023-05-15T01:15:26.128Z,20.20
2023-05-15T01:17:54.281Z,20.10
2023-05-15T01:20:24.424Z,20.10
2023-05-15T01:23:07.112Z,20.10
2023-05-15T01:26:11.822Z,20.10
2023-05-15T01:28:46.382Z,20.10
2023-05-15T01:31:17.421Z,20.10
2023-05-15T01:33:47.912Z,20.10
2023-05-15T01:36:20.072Z,20.10
2023-05-15T01:38:53.504Z,20.10
2023-05-15T01:41:25.518Z,20.10
2023-05-15T01:44:01.441Z,20.10
2023-05-15T01:46:32.032Z,20.00
2023-05-15T01:49:02.818Z,20.10
2023-05-15T01:51:32.475Z,20.00
2023-05-15T01:54:01.504Z,20.10
2023-05-15T01:56:30.337Z,20.10
2023-05-15T01:59:01.239Z,20.10
2023-05-15T02:01:33.314Z,20.00
2023-05-15T02:04:02.444Z,20.10
2023-05-15T02:06:33.366Z,20.00
2023-05-15T02:09:03.900Z,20.00
2023-05-15T02:11:32.053Z,19.90
2023-05-15T02:14:02.511Z,20.00
2023-05-15T02:16:30.435Z,20.00
2023-05-15T02:18:58.352Z,20.00
2023-05-15T02:21:26.880Z,19.90
2023-05-15T02:23:54.736Z,19.90
2023-05-15T02:26:32.403Z,19.90
2023-05-15T02:29:13.161Z,20.00
2023-05-15T02:31:47.499Z,20.00
2023-05-15T02:34:24.430Z,19.90
2023-05-15T02:36:54.025Z,19.90
2023-05-15T02:39:24.967Z,19.80
2023-05-15T02:41:53.912Z,19.90
2023-05-15T02:44:24.456Z,19.90
2023-05-15T02:46:54.542Z,19.90
2023-05-15T02:49:23.492Z,20.00
2023-05-15T02:51:52.112Z,19.90
2023-05-15T02:54:20.392Z,19.90
2023-05-15T02:56:48.211Z,19.90
2023-05-15T02:59:19.720Z,19.80
2023-05-15T03:01:49.586Z,19.90
2023-05-15T03:04:17.687Z,19.80
2023-05-15T03:06:47.688Z,19.80
2023-05-15T03:09:17.788Z,19.80
2023-05-15T03:11:46.036Z,19.90
2023-05-15T03:14:14.640Z,19.80
2023-05-15T03:16:43.034Z,19.70
2023-05-15T03:19:12.686Z,19.70
2023-05-15T03:21:40.632Z,19.80
2023-05-15T03:24:08.864Z,19.90
2023-05-15T03:26:37.403Z,19.80
2023-05-15T03:29:05.263Z,19.80
2023-05-15T03:31:33.199Z,19.80
2023-05-15T03:34:01.079Z,19.90
2023-05-15T03:36:30.244Z,19.80
2023-05-15T03:38:59.360Z,19.80
2023-05-15T03:41:28.806Z,19.80
2023-05-15T03:43:56.618Z,19.90
2023-05-15T03:46:24.503Z,19.80
2023-05-15T03:48:54.385Z,19.80
2023-05-15T03:51:23.914Z,19.80
2023-05-15T03:53:56.058Z,19.80
2023-05-15T03:56:24.310Z,19.80
2023-05-15T03:58:52.155Z,19.90
2023-05-15T04:01:20.059Z,19.80
2023-05-15T04:03:47.898Z,19.90
2023-05-15T04:06:15.991Z,19.80
2023-05-15T04:08:43.827Z,19.90
2023-05-15T04:11:13.043Z,19.90
2023-05-15T04:13:40.849Z,19.90
2023-05-15T04:16:09.838Z,19.90
2023-05-15T04:18:38.443Z,19.90
2023-05-15T04:21:06.297Z,19.90
2023-05-15T04:23:34.183Z,19.90
2023-05-15T04:26:02.488Z,19.90
2023-05-15T04:28:32.382Z,19.90
2023-05-15T04:31:02.096Z,19.90
2023-05-15T04:33:29.967Z,19.90
2023-05-15T04:35:57.877Z,19.90
2023-05-15T04:38:25.705Z,19.90
2023-05-15T04:40:53.524Z,19.90
2023-05-15T04:43:21.347Z,19.80
2023-05-15T04:45:50.693Z,19.90
2023-05-15T04:48:19.170Z,19.80
2023-05-15T04:50:47.042Z,19.90
2023-05-15T04:53:15.289Z,19.90
2023-05-15T04:55:43.111Z,19.90
2023-05-15T04:58:10.997Z,19.90
2023-05-15T05:00:40.149Z,20.00
2023-05-15T05:03:09.383Z,19.90
2023-05-15T05:05:37.304Z,19.90
2023-05-15T05:08:05.165Z,19.90
2023-05-15T05:10:32.997Z,19.90
2023-05-15T05:13:00.829Z,19.90
2023-05-15T05:15:28.694Z,19.90
2023-05-15T05:17:56.725Z,19.90
2023-05-15T05:20:27.520Z,19.90
2023-05-15T05:22:55.551Z,19.90
2023-05-15T05:25:23.695Z,19.90
2023-05-15T05:27:51.868Z,19.90
2023-05-15T05:30:19.971Z,20.00
2023-05-15T05:32:47.814Z,19.90
2023-05-15T05:35:15.812Z,19.90
2023-05-15T05:37:45.310Z,19.90
2023-05-15T05:40:13.941Z,19.90
2023-05-15T05:42:42.366Z,19.90
2023-05-15T05:45:11.341Z,19.90
2023-05-15T05:47:39.188Z,19.90
2023-05-15T05:50:08.712Z,19.90
2023-05-15T05:52:36.529Z,19.90
2023-05-15T05:55:06.409Z,19.90
2023-05-15T05:57:34.314Z,19.90
2023-05-15T06:00:02.179Z,19.90
2023-05-15T06:02:37.154Z,19.90
2023-05-15T06:05:06.451Z,19.70
2023-05-15T06:07:35.053Z,19.50
2023-05-15T06:10:02.931Z,19.30
2023-05-15T06:12:32.112Z,19.30
2023-05-15T06:15:00.195Z,19.10
2023-05-15T06:17:28.040Z,19.00
2023-05-15T06:19:55.874Z,19.00
2023-05-15T06:22:23.698Z,18.90
2023-05-15T06:24:51.531Z,19.00
2023-05-15T06:27:19.349Z,19.00
2023-05-15T06:29:48.573Z,19.10
2023-05-15T06:32:16.355Z,19.20
2023-05-15T06:34:44.248Z,19.30
2023-05-15T06:37:12.603Z,19.10
2023-05-15T06:39:40.937Z,19.10
2023-05-15T06:42:08.921Z,19.10
2023-05-15T06:44:36.816Z,19.00
2023-05-15T06:47:06.899Z,19.00
2023-05-15T06:49:34.806Z,19.10
2023-05-15T06:52:02.690Z,19.10
2023-05-15T06:54:30.510Z,19.00
2023-05-15T06:56:58.346Z,19.20
2023-05-15T06:59:26.224Z,19.10
2023-05-15T07:01:56.028Z,19.10
2023-05-15T07:04:26.104Z,19.10
2023-05-15T07:06:53.969Z,19.20
2023-05-15T07:09:21.857Z,19.20
2023-05-15T07:11:49.682Z,19.10
2023-05-15T07:14:17.482Z,19.00
2023-05-15T07:16:47.017Z,19.20
2023-05-15T07:19:18.086Z,19.10
2023-05-15T07:21:47.391Z,19.20
2023-05-15T07:24:15.445Z,19.20
2023-05-15T07:26:54.388Z,19.30
2023-05-15T07:29:26.008Z,19.40
2023-05-15T07:31:53.961Z,19.30
2023-05-15T07:34:21.842Z,19.10
2023-05-15T07:36:51.057Z,19.20
2023-05-15T07:39:18.937Z,19.20
2023-05-15T07:41:47.476Z,19.20
2023-05-15T07:44:15.303Z,19.20
2023-05-15T07:46:43.279Z,19.10
2023-05-15T07:49:11.189Z,19.10
2023-05-15T07:51:38.982Z,19.20
2023-05-15T07:54:08.449Z,19.30
2023-05-15T07:56:36.280Z,19.70
2023-05-15T07:59:04.485Z,19.70
2023-05-15T08:01:32.880Z,19.50
2023-05-15T08:04:00.946Z,19.40
2023-05-15T08:06:28.875Z,19.50
2023-05-15T08:08:56.709Z,19.30
2023-05-15T08:11:25.955Z,19.50
2023-05-15T08:13:53.792Z,19.40
2023-05-15T08:16:21.668Z,19.40
2023-05-15T08:18:52.950Z,19.40
2023-05-15T08:21:20.831Z,19.50
2023-05-15T08:23:49.127Z,19.50
2023-05-15T08:26:17.220Z,19.40
2023-05-15T08:28:46.627Z,19.50
2023-05-15T08:31:14.736Z,19.60
2023-05-15T08:33:42.616Z,19.60
2023-05-15T08:36:11.043Z,19.50
2023-05-15T08:38:38.913Z,19.60
2023-05-15T08:41:11.904Z,19.50
2023-05-15T08:43:41.548Z,19.50
2023-05-15T08:46:10.873Z,19.40
2023-05-15T08:48:41.374Z,19.60
2023-05-15T08:51:10.763Z,19.60
2023-05-15T08:53:38.960Z,19.60
2023-05-15T08:56:07.311Z,19.70
2023-05-15T08:58:35.318Z,19.80
2023-05-15T09:01:04.037Z,19.70
2023-05-15T09:03:33.400Z,19.70
2023-05-15T09:06:02.207Z,19.70
2023-05-15T09:08:33.579Z,19.70
2023-05-15T09:11:03.408Z,19.70
2023-05-15T09:13:31.508Z,19.70
2023-05-15T09:15:59.357Z,19.70
2023-05-15T09:18:27.870Z,19.90
2023-05-15T09:20:57.066Z,19.90
2023-05-15T09:23:26.404Z,20.00
2023-05-15T09:25:56.703Z,20.10
2023-05-15T09:28:29.934Z,20.20
2023-05-15T09:30:59.864Z,20.10
2023-05-15T09:33:32.940Z,19.90
2023-05-15T09:36:02.604Z,19.90
2023-05-15T09:38:33.096Z,20.00
2023-05-15T09:41:05.981Z,20.10
2023-05-15T09:43:37.337Z,19.90
2023-05-15T09:46:05.942Z,19.90
2023-05-15T09:48:34.037Z,20.10
2023-05-15T09:51:05.669Z,19.90
2023-05-15T09:53:33.706Z,19.60
2023-05-15T09:56:01.572Z,19.60
2023-05-15T09:58:30.159Z,19.80
2023-05-15T10:01:01.325Z,19.60
2023-05-15T10:03:29.296Z,19.50
2023-05-15T10:06:00.834Z,19.60
2023-05-15T10:08:32.127Z,20.00
2023-05-15T10:11:01.561Z,20.20
2023-05-15T10:13:32.436Z,20.70
2023-05-15T10:16:03.421Z,20.80
2023-05-15T10:18:34.275Z,21.00
2023-05-15T10:21:04.616Z,21.10
2023-05-15T10:23:37.548Z,21.00
2023-05-15T10:26:12.024Z,21.00
2023-05-15T10:28:41.826Z,21.20
2023-05-15T10:31:19.858Z,21.50
2023-05-15T10:33:48.989Z,21.70
2023-05-15T10:36:17.675Z,21.90
2023-05-15T10:38:48.607Z,22.10
2023-05-15T10:41:18.440Z,22.10
2023-05-15T10:43:47.644Z,22.30
2023-05-15T10:46:17.016Z,22.00
2023-05-15T10:48:45.076Z,22.10
2023-05-15T10:51:17.257Z,22.10
2023-05-15T10:53:47.185Z,22.30
2023-05-15T10:56:17.025Z,22.30
2023-05-15T10:58:49.116Z,22.10
2023-05-15T11:01:27.957Z,21.90
2023-05-15T11:04:13.329Z,21.80
2023-05-15T11:06:42.402Z,21.70
2023-05-15T11:09:40.099Z,21.70
2023-05-15T11:12:10.111Z,21.90
2023-05-15T11:14:40.212Z,21.90
2023-05-15T11:17:10.457Z,22.00
2023-05-15T11:19:58.467Z,22.00
2023-05-15T11:22:31.650Z,22.10
2023-05-15T11:25:02.453Z,22.00
2023-05-15T11:27:31.977Z,22.00
2023-05-15T11:30:12.309Z,22.10
2023-05-15T11:32:51.350Z,22.00
2023-05-15T11:35:22.326Z,22.10
2023-05-15T11:37:51.754Z,22.20
2023-05-15T11:40:25.968Z,22.20
2023-05-15T11:43:01.690Z,22.20
2023-05-15T11:45:31.758Z,22.20
2023-05-15T11:48:03.268Z,22.20
2023-05-15T11:50:32.457Z,22.20
2023-05-15T11:53:04.476Z,22.10
2023-05-15T11:55:35.507Z,22.10
2023-05-15T11:58:04.072Z,22.10
2023-05-15T12:00:32.149Z,22.10
2023-05-15T12:03:00.134Z,22.10
2023-05-15T12:05:28.062Z,21.90
2023-05-15T12:07:55.918Z,21.90
2023-05-15T12:10:23.868Z,21.80
2023-05-15T12:12:53.286Z,21.80
2023-05-15T12:15:21.183Z,21.90
2023-05-15T12:17:49.560Z,21.90
2023-05-15T12:20:18.812Z,22.00
2023-05-15T12:22:46.710Z,21.90
2023-05-15T12:25:17.551Z,21.90
2023-05-15T12:27:45.669Z,22.00
2023-05-15T12:30:15.529Z,22.00
2023-05-15T12:32:43.733Z,21.80
2023-05-15T12:35:12.850Z,21.80
2023-05-15T12:37:42.861Z,21.90
2023-05-15T12:40:12.987Z,21.80
2023-05-15T12:42:42.553Z,21.80
2023-05-15T12:45:15.951Z,21.80
2023-05-15T12:47:44.689Z,21.90
2023-05-15T12:50:17.535Z,21.90
2023-05-15T12:52:51.893Z,21.80
2023-05-15T12:55:23.433Z,21.70
2023-05-15T12:57:51.355Z,21.80
2023-05-15T13:00:23.191Z,21.80
2023-05-15T13:02:53.694Z,21.90
2023-05-15T13:05:23.613Z,21.90
2023-05-15T13:07:52.411Z,21.90
2023-05-15T13:10:22.716Z,21.90
2023-05-15T13:12:52.339Z,21.90
2023-05-15T13:15:28.483Z,22.00
2023-05-15T13:18:00.542Z,21.90
2023-05-15T13:20:30.069Z,22.10
2023-05-15T13:22:57.920Z,22.00
2023-05-15T13:25:25.816Z,21.90
2023-05-15T13:27:54.075Z,22.10
2023-05-15T13:30:21.927Z,22.00
2023-05-15T13:32:52.523Z,22.10
2023-05-15T13:35:21.906Z,22.10
2023-05-15T13:37:49.913Z,22.20
2023-05-15T13:40:17.930Z,22.30
2023-05-15T13:42:46.067Z,22.10
2023-05-15T13:45:14.956Z,22.10
2023-05-15T13:47:43.103Z,22.30
2023-05-15T13:50:14.100Z,22.30
2023-05-15T13:52:43.208Z,22.30
2023-05-15T13:55:11.561Z,22.00
2023-05-15T13:57:40.355Z,21.80
2023-05-15T14:00:12.186Z,21.90
2023-05-15T14:02:40.202Z,22.00
2023-05-15T14:05:09.260Z,22.00
2023-05-15T14:07:38.543Z,22.00
2023-05-15T14:10:07.782Z,22.00
2023-05-15T14:12:35.972Z,22.00
2023-05-15T14:15:04.554Z,21.80
2023-05-15T14:17:32.501Z,22.00
2023-05-15T14:20:00.382Z,21.90
2023-05-15T14:22:28.275Z,21.90
2023-05-15T14:24:57.440Z,22.10
2023-05-15T14:27:25.279Z,21.90
2023-05-15T14:29:53.145Z,21.90
2023-05-15T14:32:21.082Z,21.90
2023-05-15T14:34:49.046Z,22.00
2023-05-15T14:37:17.054Z,22.00
2023-05-15T14:39:44.985Z,22.00
2023-05-15T14:42:14.127Z,22.00
2023-05-15T14:44:41.925Z,22.20
2023-05-15T14:47:12.523Z,22.10
2023-05-15T14:49:40.846Z,22.10
2023-05-15T14:52:10.180Z,22.20
2023-05-15T14:54:39.171Z,22.20
2023-05-15T14:57:07.516Z,22.30
2023-05-15T14:59:36.948Z,22.30
2023-05-15T15:02:04.887Z,22.20
2023-05-15T15:04:34.496Z,22.10
2023-05-15T15:07:05.287Z,21.90
2023-05-15T15:09:33.111Z,21.80
2023-05-15T15:12:01.063Z,21.90
2023-05-15T15:14:28.952Z,21.90
2023-05-15T15:16:58.374Z,21.90
2023-05-15T15:19:27.210Z,22.00
2023-05-15T15:21:55.080Z,22.00
2023-05-15T15:24:22.868Z,21.90
2023-05-15T15:26:50.689Z,21.90
2023-05-15T15:29:18.539Z,21.90
2023-05-15T15:31:46.536Z,21.90
2023-05-15T15:34:15.794Z,21.90
2023-05-15T15:36:43.649Z,22.00
2023-05-15T15:39:12.797Z,21.90
2023-05-15T15:41:40.603Z,21.80
2023-05-15T15:44:08.424Z,21.90
2023-05-15T15:46:36.282Z,21.90
2023-05-15T15:49:05.256Z,21.90
2023-05-15T15:51:35.799Z,21.80
2023-05-15T15:54:03.687Z,21.80
2023-05-15T15:56:31.581Z,21.80
2023-05-15T15:58:59.644Z,21.70
2023-05-15T16:01:28.271Z,21.80
2023-05-15T16:03:56.112Z,21.80
2023-05-15T16:06:23.985Z,21.80
2023-05-15T16:08:53.228Z,21.90
2023-05-15T16:11:21.395Z,22.00
2023-05-15T16:13:49.219Z,22.00
2023-05-15T16:16:17.139Z,22.10
2023-05-15T16:18:45.584Z,22.10
2023-05-15T16:21:13.926Z,22.10
2023-05-15T16:23:42.131Z,22.10
2023-05-15T16:26:11.881Z,22.10
2023-05-15T16:28:40.829Z,22.10
2023-05-15T16:31:09.370Z,22.10
2023-05-15T16:33:37.272Z,22.20
2023-05-15T16:36:05.928Z,22.20
2023-05-15T16:38:33.803Z,22.10
2023-05-15T16:41:02.106Z,22.10
2023-05-15T16:43:31.353Z,22.10
2023-05-15T16:45:59.324Z,22.10
2023-05-15T16:48:27.839Z,22.10
2023-05-15T16:50:55.642Z,22.10
2023-05-15T16:53:23.789Z,22.00
2023-05-15T16:55:51.701Z,22.00
2023-05-15T16:58:20.057Z,22.10
2023-05-15T17:00:49.269Z,22.00
2023-05-15T17:03:18.040Z,21.90
2023-05-15T17:05:46.120Z,21.90
2023-05-15T17:08:14.122Z,21.80
2023-05-15T17:10:41.929Z,21.70
2023-05-15T17:13:09.744Z,21.70
2023-05-15T17:15:37.575Z,21.60
2023-05-15T17:18:07.132Z,21.60
2023-05-15T17:20:35.030Z,21.60
2023-05-15T17:23:02.947Z,21.60
2023-05-15T17:25:30.805Z,21.60
2023-05-15T17:27:58.655Z,21.60
2023-05-15T17:30:26.799Z,21.50
2023-05-15T17:32:54.719Z,21.40
2023-05-15T17:35:24.169Z,21.40
2023-05-15T17:37:52.555Z,21.30
2023-05-15T17:40:20.437Z,21.30
2023-05-15T17:42:48.419Z,21.40
2023-05-15T17:45:16.338Z,21.40
2023-05-15T17:47:44.408Z,21.30
2023-05-15T17:50:12.660Z,21.30
2023-05-15T17:52:41.939Z,21.00
2023-05-15T17:55:10.565Z,21.10
2023-05-15T17:57:38.433Z,21.10
2023-05-15T18:00:07.614Z,20.90
2023-05-15T18:02:40.632Z,21.00
2023-05-15T18:05:10.050Z,21.00
2023-05-15T18:07:37.891Z,20.90
2023-05-15T18:10:09.098Z,20.90
2023-05-15T18:12:36.900Z,20.90
2023-05-15T18:15:05.419Z,21.00
2023-05-15T18:17:33.306Z,20.90
2023-05-15T18:20:01.704Z,20.90
2023-05-15T18:22:29.651Z,20.80
2023-05-15T18:24:57.426Z,20.80
2023-05-15T18:27:26.600Z,20.60
2023-05-15T18:29:56.170Z,20.60
2023-05-15T18:32:24.015Z,20.70
2023-05-15T18:34:51.816Z,20.70
2023-05-15T18:37:19.698Z,20.70
2023-05-15T18:39:47.957Z,20.60
2023-05-15T18:42:16.788Z,20.60
2023-05-15T18:44:47.480Z,20.40
2023-05-15T18:47:15.364Z,20.30
2023-05-15T18:49:45.711Z,20.50
2023-05-15T18:52:14.265Z,20.40
2023-05-15T18:54:42.210Z,20.50
2023-05-15T18:57:10.000Z,20.40
2023-05-15T18:59:37.905Z,20.30
2023-05-15T19:02:09.249Z,20.30
2023-05-15T19:04:37.126Z,20.30
2023-05-15T19:07:05.556Z,20.30
2023-05-15T19:09:34.254Z,20.30
2023-05-15T19:12:03.985Z,20.30
2023-05-15T19:14:33.379Z,20.40
2023-05-15T19:17:01.266Z,20.30
2023-05-15T19:19:30.763Z,20.20
2023-05-15T19:21:58.694Z,20.20
2023-05-15T19:24:26.581Z,20.20
2023-05-15T19:26:54.964Z,20.20
2023-05-15T19:29:23.210Z,20.20
2023-05-15T19:31:51.194Z,20.30
2023-05-15T19:34:19.189Z,20.40
2023-05-15T19:36:50.667Z,20.40
2023-05-15T19:39:20.604Z,20.40
2023-05-15T19:41:48.530Z,20.40
2023-05-15T19:44:16.459Z,20.40
2023-05-15T19:46:44.993Z,20.40
2023-05-15T19:49:12.880Z,20.40
2023-05-15T19:51:41.154Z,20.40
2023-05-15T19:54:11.155Z,20.40
2023-05-15T19:56:38.968Z,20.50
2023-05-15T19:59:06.782Z,20.40
2023-05-15T20:01:34.686Z,20.50
2023-05-15T20:04:02.649Z,20.40
2023-05-15T20:06:30.716Z,20.40
2023-05-15T20:08:58.630Z,20.40
2023-05-15T20:11:27.803Z,20.40
2023-05-15T20:13:55.729Z,20.40
2023-05-15T20:16:23.528Z,20.40
2023-05-15T20:18:55.207Z,20.40
2023-05-15T20:21:23.184Z,20.40
2023-05-15T20:23:51.101Z,20.50
2023-05-15T20:26:22.190Z,20.40
2023-05-15T20:28:51.367Z,20.40
2023-05-15T20:31:19.349Z,20.40
2023-05-15T20:33:47.311Z,20.40
2023-05-15T20:36:16.488Z,20.40
2023-05-15T20:38:44.931Z,20.40
2023-05-15T20:41:12.772Z,20.40
2023-05-15T20:43:40.607Z,20.40
2023-05-15T20:46:10.378Z,20.40
2023-05-15T20:48:38.264Z,20.40
2023-05-15T20:51:06.144Z,20.40
2023-05-15T20:53:33.977Z,20.40
2023-05-15T20:56:03.101Z,20.40
2023-05-15T20:58:31.019Z,20.40
2023-05-15T21:01:00.711Z,20.40
2023-05-15T21:03:30.306Z,20.40
2023-05-15T21:05:58.322Z,20.30
2023-05-15T21:08:27.684Z,20.30
2023-05-15T21:10:55.650Z,20.30
2023-05-15T21:13:23.572Z,20.30
2023-05-15T21:15:51.471Z,20.30
2023-05-15T21:18:19.672Z,20.30
2023-05-15T21:20:48.837Z,20.30
2023-05-15T21:23:16.856Z,20.30
2023-05-15T21:25:44.753Z,20.30
2023-05-15T21:28:12.638Z,20.40
2023-05-15T21:30:40.456Z,20.40
2023-05-15T21:33:08.333Z,20.40
2023-05-15T21:35:36.245Z,20.40
2023-05-15T21:38:05.441Z,20.40
2023-05-15T21:40:33.309Z,20.40
2023-05-15T21:43:01.212Z,20.40
2023-05-15T21:45:30.492Z,20.40
2023-05-15T21:47:58.546Z,20.40
2023-05-15T21:50:27.247Z,20.30
2023-05-15T21:52:55.568Z,20.30
2023-05-15T21:55:26.295Z,20.30
2023-05-15T21:57:54.254Z,20.20
2023-05-15T22:00:22.117Z,20.20
2023-05-15T22:02:50.106Z,20.10
2023-05-15T22:05:18.477Z,20.20
2023-05-15T22:07:46.383Z,20.10
2023-05-15T22:10:16.426Z,20.10
2023-05-15T22:12:46.692Z,20.20
2023-05-15T22:15:16.502Z,20.20
2023-05-15T22:17:44.437Z,20.30
2023-05-15T22:20:13.869Z,20.30
2023-05-15T22:22:43.769Z,20.20
2023-05-15T22:25:11.780Z,20.20
2023-05-15T22:27:39.968Z,20.20
2023-05-15T22:30:13.202Z,20.20
2023-05-15T22:32:41.393Z,20.10
2023-05-15T22:35:10.551Z,20.00
2023-05-15T22:37:40.572Z,20.10
2023-05-15T22:40:09.856Z,20.10
2023-05-15T22:42:37.692Z,20.10
2023-05-15T22:45:06.464Z,20.10
2023-05-15T22:47:35.725Z,20.10
2023-05-15T22:50:03.602Z,20.10
2023-05-15T22:52:31.490Z,20.20
2023-05-15T22:54:59.427Z,20.20
2023-05-15T22:57:27.766Z,20.10
2023-05-15T22:59:55.899Z,20.10
2023-05-15T23:02:23.731Z,20.10
2023-05-15T23:04:53.006Z,20.10
2023-05-15T23:07:20.791Z,20.20
2023-05-15T23:09:48.588Z,20.10
2023-05-15T23:12:16.443Z,20.20
2023-05-15T23:14:44.374Z,20.20
2023-05-15T23:17:13.066Z,20.20
2023-05-15T23:19:40.883Z,20.10
2023-05-15T23:22:10.072Z,20.00
2023-05-15T23:24:38.061Z,20.10
2023-05-15T23:27:06.308Z,20.00
2023-05-15T23:29:34.609Z,20.10
2023-05-15T23:32:02.482Z,20.10
2023-05-15T23:34:30.597Z,20.00
2023-05-15T23:36:58.394Z,20.00
2023-05-15T23:39:27.537Z,20.00
2023-05-15T23:41:55.934Z,20.00
2023-05-15T23:44:24.062Z,19.90
2023-05-15T23:46:51.926Z,19.90
2023-05-15T23:49:19.747Z,20.00
2023-05-15T23:51:47.541Z,20.10
2023-05-15T23:54:15.368Z,20.10
2023-05-15T23:56:44.542Z,20.00
2023-05-15T23:59:13.592Z,20.00
